createdAt,value
2023-02-15T00:01:43.035Z,1.80
2023-02-15T00:04:12.789Z,1.80
2023-02-15T00:06:39.538Z,1.80
2023-02-15T00:09:06.447Z,1.80
2023-02-15T00:11:43.839Z,1.80
2023-02-15T00:14:13.372Z,1.70
2023-02-15T00:16:42.030Z,1.70
2023-02-15T00:19:09.669Z,1.60
2023-02-15T00:21:38.012Z,1.70
2023-02-15T00:24:08.191Z,1.70
2023-02-15T00:26:36.340Z,1.70
2023-02-15T00:29:03.430Z,1.60
2023-02-15T00:31:32.690Z,1.70
2023-02-15T00:34:12.822Z,1.60
2023-02-15T00:36:40.148Z,1.70
2023-02-15T00:39:07.393Z,1.70
2023-02-15T00:41:35.993Z,1.70
2023-02-15T00:44:03.399Z,1.70
2023-02-15T00:46:30.552Z,1.70
2023-02-15T00:48:57.232Z,1.70
2023-02-15T00:51:24.655Z,1.70
2023-02-15T00:53:52.218Z,1.70
2023-02-15T00:56:19.559Z,1.70
2023-02-15T00:58:46.799Z,1.70
2023-02-15T01:01:17.219Z,1.70
2023-02-15T01:03:46.880Z,1.70
2023-02-15T01:06:15.349Z,1.70
2023-02-15T01:08:44.558Z,1.60
2023-02-15T01:11:15.175Z,1.60
2023-02-15T01:13:42.583Z,1.60
2023-02-15T01:16:09.777Z,1.60
2023-02-15T01:18:37.118Z,1.60
2023-02-15T01:21:18.913Z,1.60
2023-02-15T01:23:46.100Z,1.60
2023-02-15T01:26:13.485Z,1.60
2023-02-15T01:28:40.177Z,1.60
2023-02-15T01:31:15.988Z,1.60
2023-02-15T01:33:46.114Z,1.60
2023-02-15T01:36:13.330Z,1.60
2023-02-15T01:38:41.028Z,1.60
2023-02-15T01:41:27.405Z,1.60
2023-02-15T01:43:57.703Z,1.60
2023-02-15T01:46:47.017Z,1.60
2023-02-15T01:49:18.039Z,1.50
2023-02-15T01:51:47.422Z,1.60
2023-02-15T01:54:25.778Z,1.60
2023-02-15T01:56:56.017Z,1.60
2023-02-15T01:59:25.030Z,1.60
2023-02-15T02:02:00.596Z,1.70
2023-02-15T02:04:42.296Z,1.70
2023-02-15T02:07:10.837Z,1.70
2023-02-15T02:09:38.874Z,1.70
2023-02-15T02:12:06.498Z,1.60
2023-02-15T02:18:09.777Z,1.60
2023-02-15T02:20:51.688Z,1.60
2023-02-15T02:23:52.771Z,1.60
2023-02-15T02:26:32.918Z,1.70
2023-02-15T02:29:18.136Z,1.70
2023-02-15T02:32:22.001Z,1.70
2023-02-15T02:35:06.112Z,1.70
2023-02-15T02:37:33.026Z,1.60
2023-02-15T02:40:09.324Z,1.60
2023-02-15T02:42:49.505Z,1.60
2023-02-15T02:45:55.608Z,1.60
2023-02-15T02:48:26.673Z,1.50
2023-02-15T02:50:53.410Z,1.50
2023-02-15T02:53:20.163Z,1.50
2023-02-15T02:55:57.470Z,1.50
2023-02-15T02:58:49.613Z,1.50
2023-02-15T03:01:28.366Z,1.50
2023-02-15T03:04:02.116Z,1.50
2023-02-15T03:06:38.776Z,1.50
2023-02-15T03:09:22.620Z,1.50
2023-02-15T03:11:50.678Z,1.50
2023-02-15T03:14:19.613Z,1.50
2023-02-15T03:16:48.971Z,1.50
2023-02-15T03:19:24.651Z,1.60
2023-02-15T03:22:10.213Z,1.60
2023-02-15T03:24:48.964Z,1.60
2023-02-15T03:27:24.228Z,1.70
2023-02-15T03:29:56.511Z,1.60
2023-02-15T03:32:26.411Z,1.60
2023-02-15T03:34:53.247Z,1.60
2023-02-15T03:37:33.306Z,1.60
2023-02-15T03:40:25.898Z,1.70
2023-02-15T03:43:11.884Z,1.70
2023-02-15T03:45:55.472Z,1.70
2023-02-15T03:48:37.470Z,1.60
2023-02-15T03:51:34.391Z,1.60
2023-02-15T03:54:59.381Z,1.60
2023-02-15T03:57:47.894Z,1.70
2023-02-15T04:00:33.916Z,1.70
2023-02-15T04:03:21.285Z,1.70
2023-02-15T04:05:48.233Z,1.70
2023-02-15T04:08:15.202Z,1.70
2023-02-15T04:10:54.354Z,1.70
2023-02-15T04:13:30.583Z,1.70
2023-02-15T04:16:07.940Z,1.70
2023-02-15T04:19:02.226Z,1.70
2023-02-15T04:21:50.410Z,1.70
2023-02-15T04:24:36.347Z,1.70
2023-02-15T04:27:05.327Z,1.70
2023-02-15T04:29:32.945Z,1.60
2023-02-15T04:32:03.000Z,1.60
2023-02-15T04:34:30.348Z,1.60
2023-02-15T04:36:57.497Z,1.60
2023-02-15T04:39:25.083Z,1.60
2023-02-15T04:41:52.158Z,1.60
2023-02-15T04:44:19.516Z,1.50
2023-02-15T04:46:46.671Z,1.60
2023-02-15T04:49:13.458Z,1.60
2023-02-15T04:51:40.459Z,1.60
2023-02-15T04:54:08.096Z,1.60
2023-02-15T04:56:35.904Z,1.60
2023-02-15T04:59:02.691Z,1.60
2023-02-15T05:01:36.011Z,1.60
2023-02-15T05:04:10.847Z,1.60
2023-02-15T05:06:42.675Z,1.50
2023-02-15T05:09:10.148Z,1.60
2023-02-15T05:11:37.419Z,1.60
2023-02-15T05:14:08.861Z,1.60
2023-02-15T05:16:39.927Z,1.60
2023-02-15T05:19:07.751Z,1.60
2023-02-15T05:21:37.539Z,1.60
2023-02-15T05:24:32.257Z,1.50
2023-02-15T05:27:18.373Z,1.50
2023-02-15T05:29:47.253Z,1.60
2023-02-15T05:32:20.248Z,1.60
2023-02-15T05:34:47.918Z,1.40
2023-02-15T05:37:15.501Z,1.30
2023-02-15T05:39:42.482Z,1.20
2023-02-15T05:42:10.020Z,1.10
2023-02-15T05:44:37.699Z,1.20
2023-02-15T05:47:05.709Z,1.10
2023-02-15T05:49:33.227Z,1.10
2023-02-15T05:52:00.027Z,1.10
2023-02-15T05:54:26.980Z,1.00
2023-02-15T05:56:53.908Z,1.00
2023-02-15T05:59:20.729Z,1.00
2023-02-15T06:01:47.703Z,0.90
2023-02-15T06:04:14.551Z,0.90
2023-02-15T06:06:41.471Z,0.80
2023-02-15T06:09:08.370Z,0.90
2023-02-15T06:11:35.311Z,0.90
2023-02-15T06:14:02.494Z,0.90
2023-02-15T06:16:29.866Z,0.90
2023-02-15T06:19:08.574Z,0.80
2023-02-15T06:21:47.998Z,0.80
2023-02-15T06:24:24.368Z,0.80
2023-02-15T06:35:19.985Z,0.60
2023-02-15T06:42:09.676Z,0.50
2023-02-15T06:44:51.250Z,0.50
2023-02-15T06:47:25.083Z,0.60
2023-02-15T06:49:56.968Z,0.60
2023-02-15T06:52:30.940Z,0.60
2023-02-15T06:55:03.352Z,0.60
2023-02-15T06:57:33.425Z,0.60
2023-02-15T07:00:01.059Z,0.60
2023-02-15T07:02:28.649Z,0.50
2023-02-15T07:05:08.108Z,0.50
2023-02-15T07:07:40.943Z,0.50
2023-02-15T07:10:09.346Z,0.60
2023-02-15T07:12:46.848Z,0.60
2023-02-15T07:15:18.494Z,0.60
2023-02-15T07:17:45.585Z,0.60
2023-02-15T07:20:15.848Z,0.70
2023-02-15T07:22:43.825Z,0.70
2023-02-15T07:25:12.341Z,0.70
2023-02-15T07:27:40.112Z,0.80
2023-02-15T07:30:11.352Z,0.80
2023-02-15T07:32:58.571Z,0.80
2023-02-15T07:35:25.678Z,0.80
2023-02-15T07:37:54.090Z,0.80
2023-02-15T07:40:23.360Z,0.80
2023-02-15T07:42:54.102Z,0.90
2023-02-15T07:45:22.361Z,0.80
2023-02-15T07:47:49.340Z,0.80
2023-02-15T07:50:17.026Z,0.90
2023-02-15T07:52:44.205Z,0.80
2023-02-15T07:55:13.662Z,0.80
2023-02-15T07:57:48.585Z,0.80
2023-02-15T08:00:18.639Z,0.90
2023-02-15T08:03:10.020Z,1.00
2023-02-15T08:05:37.330Z,1.10
2023-02-15T08:08:04.441Z,1.10
2023-02-15T08:10:50.790Z,1.10
2023-02-15T08:13:17.867Z,1.10
2023-02-15T08:15:52.511Z,1.10
2023-02-15T08:18:19.403Z,1.20
2023-02-15T08:20:55.169Z,1.20
2023-02-15T08:23:22.150Z,1.20
2023-02-15T08:25:49.073Z,1.30
2023-02-15T08:28:15.800Z,1.20
2023-02-15T08:30:43.094Z,1.30
2023-02-15T08:33:13.041Z,1.30
2023-02-15T08:35:39.856Z,1.20
2023-02-15T08:38:06.541Z,1.20
2023-02-15T08:40:33.263Z,1.20
2023-02-15T08:42:59.966Z,1.20
2023-02-15T08:45:26.900Z,1.30
2023-02-15T08:47:54.025Z,1.30
2023-02-15T08:50:20.642Z,1.30
2023-02-15T08:52:47.357Z,1.30
2023-02-15T08:55:14.305Z,1.40
2023-02-15T08:57:45.800Z,1.40
2023-02-15T09:00:13.100Z,1.30
2023-02-15T09:02:40.016Z,1.30
2023-02-15T09:05:07.350Z,1.40
2023-02-15T09:07:34.077Z,1.40
2023-02-15T09:10:00.807Z,1.50
2023-02-15T09:12:27.657Z,1.60
2023-02-15T09:14:54.518Z,1.60
2023-02-15T09:17:21.321Z,1.70
2023-02-15T09:19:48.441Z,1.70
2023-02-15T09:22:15.204Z,1.60
2023-02-15T09:24:42.105Z,1.70
2023-02-15T09:27:08.889Z,1.70
2023-02-15T09:29:35.722Z,1.80
2023-02-15T09:32:02.459Z,1.90
2023-02-15T09:34:29.247Z,1.80
2023-02-15T09:36:56.101Z,1.80
2023-02-15T09:39:25.409Z,1.90
2023-02-15T09:42:04.803Z,1.90
2023-02-15T09:44:31.634Z,2.00
2023-02-15T09:47:38.017Z,2.10
2023-02-15T09:50:23.104Z,2.10
2023-02-15T09:52:55.681Z,2.20
2023-02-15T09:55:34.618Z,2.20
2023-02-15T09:58:46.336Z,2.30
2023-02-15T10:01:21.536Z,2.30
2023-02-15T10:03:57.150Z,2.20
2023-02-15T10:06:34.055Z,2.20
2023-02-15T10:09:10.861Z,2.40
2023-02-15T10:11:51.037Z,2.40
2023-02-15T10:14:20.529Z,2.40
2023-02-15T10:17:03.328Z,2.40
2023-02-15T10:20:11.542Z,2.50
2023-02-15T10:23:12.046Z,2.40
2023-02-15T10:25:52.545Z,2.60
2023-02-15T10:28:24.210Z,2.60
2023-02-15T10:30:54.848Z,2.70
2023-02-15T10:33:41.678Z,2.70
2023-02-15T10:36:38.038Z,2.70
2023-02-15T10:39:29.249Z,2.80
2023-02-15T10:42:23.963Z,2.70
2023-02-15T10:44:59.985Z,2.60
2023-02-15T10:47:40.272Z,2.70
2023-02-15T10:50:26.186Z,2.80
2023-02-15T10:53:18.290Z,2.80
2023-02-15T10:56:08.254Z,2.80
2023-02-15T10:58:56.890Z,2.90
2023-02-15T11:01:42.096Z,3.00
2023-02-15T11:04:35.392Z,3.00
2023-02-15T11:07:09.103Z,3.00
2023-02-15T11:09:51.036Z,3.00
2023-02-15T11:12:25.618Z,3.00
2023-02-15T11:15:04.747Z,3.00
2023-02-15T11:17:39.949Z,3.00
2023-02-15T11:20:22.396Z,3.00
2023-02-15T11:22:52.037Z,2.90
2023-02-15T11:25:31.773Z,3.00
2023-02-15T11:28:00.638Z,3.00
2023-02-15T11:30:39.484Z,3.00
2023-02-15T11:33:07.712Z,3.10
2023-02-15T11:35:50.192Z,3.10
2023-02-15T11:38:30.836Z,3.10
2023-02-15T11:41:09.694Z,3.10
2023-02-15T11:43:54.930Z,3.20
2023-02-15T11:46:22.928Z,3.20
2023-02-15T11:48:49.969Z,3.30
2023-02-15T11:51:23.648Z,3.30
2023-02-15T11:53:52.038Z,3.40
2023-02-15T11:56:27.184Z,3.40
2023-02-15T11:59:01.553Z,3.30
2023-02-15T12:01:38.834Z,3.30
2023-02-15T12:04:14.101Z,3.40
2023-02-15T12:06:50.451Z,3.40
2023-02-15T12:09:23.779Z,3.40
2023-02-15T12:11:50.685Z,3.50
2023-02-15T12:14:17.480Z,3.50
2023-02-15T12:16:56.831Z,3.60
2023-02-15T12:19:41.423Z,3.60
2023-02-15T12:22:30.274Z,3.60
2023-02-15T12:25:01.220Z,3.60
2023-02-15T12:27:33.134Z,3.60
2023-02-15T12:30:05.093Z,3.60
2023-02-15T12:32:47.371Z,3.60
2023-02-15T12:35:17.574Z,3.70
2023-02-15T12:37:58.910Z,3.80
2023-02-15T12:40:31.323Z,3.80
2023-02-15T12:42:59.190Z,3.70
2023-02-15T12:45:30.195Z,3.80
2023-02-15T12:48:19.492Z,3.50
2023-02-15T12:50:55.009Z,3.60
2023-02-15T12:53:35.458Z,3.60
2023-02-15T12:56:07.669Z,3.60
2023-02-15T12:58:39.233Z,3.60
2023-02-15T13:01:22.966Z,3.60
2023-02-15T13:04:05.727Z,3.60
2023-02-15T13:06:35.731Z,3.60
2023-02-15T13:09:33.636Z,3.60
2023-02-15T13:12:24.292Z,3.70
2023-02-15T13:14:53.171Z,3.60
2023-02-15T13:17:30.133Z,3.50
2023-02-15T13:20:01.616Z,3.50
2023-02-15T13:22:47.655Z,3.50
2023-02-15T13:25:22.716Z,3.50
2023-02-15T13:28:03.665Z,3.60
2023-02-15T13:30:36.090Z,3.60
2023-02-15T13:33:11.669Z,3.80
2023-02-15T13:35:48.411Z,3.90
2023-02-15T13:38:17.929Z,3.90
2023-02-15T13:40:59.505Z,4.00
2023-02-15T13:43:36.903Z,4.00
2023-02-15T13:46:09.972Z,4.00
2023-02-15T13:48:50.359Z,4.10
2023-02-15T13:51:44.380Z,4.00
2023-02-15T13:54:37.533Z,4.00
2023-02-15T13:57:17.573Z,4.00
2023-02-15T13:59:57.312Z,3.90
2023-02-15T14:02:53.468Z,3.90
2023-02-15T14:05:32.575Z,3.90
2023-02-15T14:08:09.807Z,3.90
2023-02-15T14:10:51.136Z,3.80
2023-02-15T14:13:39.673Z,3.80
2023-02-15T14:16:35.900Z,3.90
2023-02-15T14:19:32.347Z,3.90
2023-02-15T14:22:12.031Z,4.00
2023-02-15T14:25:05.447Z,4.10
2023-02-15T14:27:55.753Z,4.20
2023-02-15T14:30:34.436Z,4.20
2023-02-15T14:33:09.873Z,4.20
2023-02-15T14:35:38.148Z,4.20
2023-02-15T14:38:07.603Z,4.20
2023-02-15T14:41:02.622Z,4.10
2023-02-15T14:43:48.495Z,4.00
2023-02-15T14:46:37.343Z,4.10
2023-02-15T14:49:31.975Z,4.00
2023-02-15T14:52:05.859Z,4.10
2023-02-15T14:54:35.155Z,4.10
2023-02-15T14:57:02.065Z,4.10
2023-02-15T14:59:32.062Z,4.00
2023-02-15T15:02:04.800Z,4.10
2023-02-15T15:04:42.843Z,4.00
2023-02-15T15:07:19.796Z,4.00
2023-02-15T15:09:58.832Z,3.90
2023-02-15T15:12:37.674Z,3.90
2023-02-15T15:15:04.969Z,3.90
2023-02-15T15:17:39.138Z,3.80
2023-02-15T15:20:08.366Z,3.70
2023-02-15T15:22:36.481Z,3.80
2023-02-15T15:28:48.445Z,3.70
2023-02-15T15:31:21.120Z,3.70
2023-02-15T15:34:12.748Z,3.70
2023-02-15T15:37:14.912Z,3.60
2023-02-15T15:39:44.748Z,3.60
2023-02-15T15:42:32.612Z,3.60
2023-02-15T15:45:34.602Z,3.60
2023-02-15T15:48:51.451Z,3.50
2023-02-15T15:51:27.470Z,3.40
2023-02-15T15:53:55.195Z,3.40
2023-02-15T15:56:32.862Z,3.40
2023-02-15T15:59:08.431Z,3.40
2023-02-15T16:01:44.541Z,3.40
2023-02-15T16:04:33.462Z,3.40
2023-02-15T16:07:15.266Z,3.30
2023-02-15T16:09:42.080Z,3.20
2023-02-15T16:12:18.493Z,3.10
2023-02-15T16:14:48.273Z,3.20
2023-02-15T16:17:25.041Z,3.10
2023-02-15T16:19:53.340Z,3.00
2023-02-15T16:22:25.913Z,3.00
2023-02-15T16:25:02.429Z,2.90
2023-02-15T16:27:35.363Z,2.90
2023-02-15T16:30:39.474Z,2.90
2023-02-15T16:33:09.534Z,3.00
2023-02-15T16:35:39.775Z,2.80
2023-02-15T16:38:10.163Z,2.80
2023-02-15T16:40:41.076Z,2.70
2023-02-15T16:43:22.421Z,2.70
2023-02-15T16:45:49.910Z,2.60
2023-02-15T16:48:22.756Z,2.70
2023-02-15T16:50:53.798Z,2.70
2023-02-15T16:53:29.771Z,2.70
2023-02-15T16:56:02.747Z,2.80
2023-02-15T16:58:38.552Z,2.80
2023-02-15T17:01:08.908Z,2.80
2023-02-15T17:03:36.457Z,2.70
2023-02-15T17:06:04.737Z,2.80
2023-02-15T17:08:34.384Z,2.70
2023-02-15T17:11:04.811Z,2.60
2023-02-15T17:13:32.126Z,2.70
2023-02-15T17:16:02.352Z,2.70
2023-02-15T17:18:44.620Z,2.70
2023-02-15T17:21:20.777Z,2.60
2023-02-15T17:23:52.525Z,2.60
2023-02-15T17:26:23.160Z,2.70
2023-02-15T17:29:10.822Z,2.60
2023-02-15T17:31:38.526Z,2.60
2023-02-15T17:34:05.710Z,2.60
2023-02-15T17:36:32.834Z,2.60
2023-02-15T17:39:01.213Z,2.60
2023-02-15T17:41:29.108Z,2.60
2023-02-15T17:43:56.202Z,2.60
2023-02-15T17:46:26.170Z,2.60
2023-02-15T17:48:56.201Z,2.50
2023-02-15T17:51:23.692Z,2.50
2023-02-15T17:54:11.164Z,2.50
2023-02-15T17:56:39.523Z,2.50
2023-02-15T17:59:11.540Z,2.50
2023-02-15T18:02:04.241Z,2.50
2023-02-15T18:04:52.449Z,2.60
2023-02-15T18:07:38.378Z,2.60
2023-02-15T18:10:44.292Z,2.50
2023-02-15T18:13:11.101Z,2.50
2023-02-15T18:15:37.883Z,2.50
2023-02-15T18:18:04.816Z,2.40
2023-02-15T18:20:37.196Z,2.40
2023-02-15T18:23:04.276Z,2.50
2023-02-15T18:25:31.251Z,2.50
2023-02-15T18:27:58.031Z,2.40
2023-02-15T18:30:27.901Z,2.40
2023-02-15T18:32:57.142Z,2.30
2023-02-15T18:35:28.421Z,2.40
2023-02-15T18:37:55.398Z,2.40
2023-02-15T18:40:27.475Z,2.40
2023-02-15T18:42:56.888Z,2.50
2023-02-15T18:45:28.557Z,2.50
2023-02-15T18:47:55.669Z,2.50
2023-02-15T18:50:32.839Z,2.40
2023-02-15T18:52:59.822Z,2.40
2023-02-15T18:55:28.326Z,2.40
2023-02-15T18:57:57.073Z,2.40
2023-02-15T19:00:34.911Z,2.50
2023-02-15T19:03:02.647Z,2.50
2023-02-15T19:05:31.840Z,2.50
2023-02-15T19:08:00.962Z,2.50
2023-02-15T19:10:31.216Z,2.50
2023-02-15T19:12:58.349Z,2.50
2023-02-15T19:15:26.174Z,2.50
2023-02-15T19:17:54.056Z,2.40
2023-02-15T19:20:38.730Z,2.40
2023-02-15T19:23:09.280Z,2.40
2023-02-15T19:25:39.057Z,2.40
2023-02-15T19:28:16.208Z,2.40
2023-02-15T19:30:43.509Z,2.40
2023-02-15T19:33:20.714Z,2.40
2023-02-15T19:35:52.329Z,2.50
2023-02-15T19:38:23.747Z,2.50
2023-02-15T19:40:50.543Z,2.50
2023-02-15T19:43:21.358Z,2.60
2023-02-15T19:45:48.907Z,2.60
2023-02-15T19:48:15.863Z,2.60
2023-02-15T19:50:43.621Z,2.60
2023-02-15T19:53:23.237Z,2.60
2023-02-15T19:55:51.243Z,2.60
2023-02-15T19:58:19.247Z,2.70
2023-02-15T20:00:48.362Z,2.70
2023-02-15T20:03:16.611Z,2.70
2023-02-15T20:05:44.474Z,2.70
2023-02-15T20:08:20.812Z,2.70
2023-02-15T20:10:47.794Z,2.70
2023-02-15T20:13:16.911Z,2.60
2023-02-15T20:15:44.756Z,2.60
2023-02-15T20:18:12.472Z,2.60
2023-02-15T20:20:51.858Z,2.60
2023-02-15T20:23:37.274Z,2.60
2023-02-15T20:26:18.753Z,2.60
2023-02-15T20:28:46.476Z,2.60
2023-02-15T20:31:16.466Z,2.60
2023-02-15T20:33:43.341Z,2.60
2023-02-15T20:36:15.896Z,2.60
2023-02-15T20:38:44.187Z,2.60
2023-02-15T20:41:40.038Z,2.50
2023-02-15T20:44:29.368Z,2.50
2023-02-15T20:46:58.609Z,2.50
2023-02-15T20:49:27.344Z,2.50
2023-02-15T20:51:55.918Z,2.50
2023-02-15T20:54:34.723Z,2.60
2023-02-15T20:57:02.408Z,2.50
2023-02-15T20:59:32.025Z,2.50
2023-02-15T21:02:02.253Z,2.40
2023-02-15T21:04:34.273Z,2.50
2023-02-15T21:07:01.302Z,2.50
2023-02-15T21:09:28.639Z,2.50
2023-02-15T21:11:58.414Z,2.50
2023-02-15T21:14:28.343Z,2.50
2023-02-15T21:16:55.220Z,2.40
2023-02-15T21:19:23.752Z,2.40
2023-02-15T21:21:53.172Z,2.40
2023-02-15T21:24:24.355Z,2.50
2023-02-15T21:26:51.962Z,2.50
2023-02-15T21:29:21.123Z,2.40
2023-02-15T21:31:54.129Z,2.40
2023-02-15T21:34:28.778Z,2.40
2023-02-15T21:36:55.962Z,2.40
2023-02-15T21:39:25.970Z,2.40
2023-02-15T21:42:13.548Z,2.50
2023-02-15T21:44:59.517Z,2.50
2023-02-15T21:47:49.954Z,2.60
2023-02-15T21:50:47.692Z,2.50
2023-02-15T21:53:25.565Z,2.50
2023-02-15T21:55:58.090Z,2.50
2023-02-15T21:58:28.270Z,2.50
2023-02-15T22:00:57.535Z,2.50
2023-02-15T22:03:26.504Z,2.50
2023-02-15T22:05:53.528Z,2.40
2023-02-15T22:08:20.371Z,2.50
2023-02-15T22:10:48.246Z,2.40
2023-02-15T22:13:26.480Z,2.40
2023-02-15T22:15:53.263Z,2.40
2023-02-15T22:18:23.513Z,2.40
2023-02-15T22:20:50.980Z,2.40
2023-02-15T22:23:17.737Z,2.40
2023-02-15T22:26:09.435Z,2.40
2023-02-15T22:28:39.348Z,2.40
2023-02-15T22:31:14.866Z,2.40
2023-02-15T22:33:41.957Z,2.40
2023-02-15T22:36:27.602Z,2.40
2023-02-15T22:38:55.229Z,2.40
2023-02-15T22:41:26.035Z,2.40
2023-02-15T22:43:53.073Z,2.30
2023-02-15T22:46:21.207Z,2.30
2023-02-15T22:48:49.143Z,2.30
2023-02-15T22:51:17.988Z,2.30
2023-02-15T22:53:44.779Z,2.40
2023-02-15T22:56:40.652Z,2.40
2023-02-15T22:59:14.670Z,2.30
2023-02-15T23:01:41.530Z,2.30
2023-02-15T23:04:18.957Z,2.40
2023-02-15T23:06:46.129Z,2.40
2023-02-15T23:09:13.093Z,2.40
2023-02-15T23:11:40.210Z,2.40
2023-02-15T23:14:16.135Z,2.40
2023-02-15T23:16:42.919Z,2.40
2023-02-15T23:19:12.865Z,2.40
2023-02-15T23:21:39.659Z,2.40
2023-02-15T23:24:20.450Z,2.40
2023-02-15T23:26:48.051Z,2.40
2023-02-15T23:29:17.849Z,2.40
2023-02-15T23:31:48.091Z,2.40
2023-02-15T23:34:22.232Z,2.50
2023-02-15T23:36:49.020Z,2.30
2023-02-15T23:39:37.656Z,2.30
2023-02-15T23:42:10.411Z,2.30
2023-02-15T23:44:38.092Z,2.30
2023-02-15T23:47:05.865Z,2.30
2023-02-15T23:49:32.732Z,2.30
2023-02-15T23:51:59.872Z,2.30
2023-02-15T23:54:26.618Z,2.30
2023-02-15T23:56:57.327Z,2.20
2023-02-15T23:59:26.014Z,2.10
